sensor_id;sensor_type;location;lat;lon;timestamp;P1;durP1;ratioP1;P2;durP2;ratioP2
15295;SDS011;7749;49.964;7.890;2024-03-17T00:01:02;4.03;;;3.13;;
15295;SDS011;7749;49.964;7.890;2024-03-17T00:03:29;4.83;;;3.60;;
15295;SDS011;7749;49.964;7.890;2024-03-17T00:05:57;4.50;;;3.43;;
15295;SDS011;7749;49.964;7.890;2024-03-17T00:08:26;4.70;;;3.73;;
15295;SDS011;7749;49.964;7.890;2024-03-17T00:10:53;6.63;;;3.63;;
15295;SDS011;7749;49.964;7.890;2024-03-17T00:13:23;3.60;;;3.23;;
15295;SDS011;7749;49.964;7.890;2024-03-17T00:15:50;4.13;;;3.37;;
15295;SDS011;7749;49.964;7.890;2024-03-17T00:18:17;4.43;;;3.37;;
15295;SDS011;7749;49.964;7.890;2024-03-17T00:20:43;4.20;;;3.30;;
15295;SDS011;7749;49.964;7.890;2024-03-17T00:23:10;3.20;;;2.90;;
15295;SDS011;7749;49.964;7.890;2024-03-17T00:25:38;4.77;;;3.57;;
15295;SDS011;7749;49.964;7.890;2024-03-17T00:28:05;4.60;;;3.80;;
15295;SDS011;7749;49.964;7.890;2024-03-17T00:30:32;4.73;;;3.90;;
15295;SDS011;7749;49.964;7.890;2024-03-17T00:32:59;4.97;;;4.50;;
15295;SDS011;7749;49.964;7.890;2024-03-17T00:35:25;5.93;;;4.00;;
15295;SDS011;7749;49.964;7.890;2024-03-17T00:37:52;5.60;;;3.50;;
15295;SDS011;7749;49.964;7.890;2024-03-17T00:40:19;5.53;;;3.10;;
15295;SDS011;7749;49.964;7.890;2024-03-17T00:42:46;4.03;;;3.37;;
15295;SDS011;7749;49.964;7.890;2024-03-17T00:45:13;6.70;;;3.67;;
15295;SDS011;7749;49.964;7.890;2024-03-17T00:47:39;5.43;;;3.60;;
15295;SDS011;7749;49.964;7.890;2024-03-17T00:50:06;5.80;;;3.27;;
15295;SDS011;7749;49.964;7.890;2024-03-17T00:52:34;6.70;;;3.83;;
15295;SDS011;7749;49.964;7.890;2024-03-17T00:55:00;5.27;;;3.90;;
15295;SDS011;7749;49.964;7.890;2024-03-17T00:57:27;5.00;;;3.10;;
15295;SDS011;7749;49.964;7.890;2024-03-17T00:59:54;6.57;;;3.40;;
15295;SDS011;7749;49.964;7.890;2024-03-17T01:02:21;5.97;;;3.70;;
15295;SDS011;7749;49.964;7.890;2024-03-17T01:04:47;4.67;;;3.30;;
15295;SDS011;7749;49.964;7.890;2024-03-17T01:07:14;4.10;;;3.00;;
15295;SDS011;7749;49.964;7.890;2024-03-17T01:09:40;4.57;;;3.00;;
15295;SDS011;7749;49.964;7.890;2024-03-17T01:12:06;4.93;;;2.83;;
15295;SDS011;7749;49.964;7.890;2024-03-17T01:14:33;4.47;;;2.83;;
15295;SDS011;7749;49.964;7.890;2024-03-17T01:16:59;5.57;;;2.73;;
15295;SDS011;7749;49.964;7.890;2024-03-17T01:19:26;3.87;;;2.90;;
15295;SDS011;7749;49.964;7.890;2024-03-17T01:21:53;5.43;;;2.80;;
15295;SDS011;7749;49.964;7.890;2024-03-17T01:24:19;4.50;;;2.60;;
15295;SDS011;7749;49.964;7.890;2024-03-17T01:26:46;4.03;;;2.83;;
15295;SDS011;7749;49.964;7.890;2024-03-17T01:29:12;3.10;;;2.67;;
15295;SDS011;7749;49.964;7.890;2024-03-17T01:31:39;5.00;;;3.00;;
15295;SDS011;7749;49.964;7.890;2024-03-17T01:34:05;3.63;;;3.30;;
15295;SDS011;7749;49.964;7.890;2024-03-17T01:36:32;5.73;;;4.30;;
15295;SDS011;7749;49.964;7.890;2024-03-17T01:38:59;6.80;;;4.10;;
15295;SDS011;7749;49.964;7.890;2024-03-17T01:41:26;6.97;;;4.50;;
15295;SDS011;7749;49.964;7.890;2024-03-17T01:43:52;5.20;;;3.80;;
15295;SDS011;7749;49.964;7.890;2024-03-17T01:46:18;6.10;;;3.90;;
15295;SDS011;7749;49.964;7.890;2024-03-17T01:48:45;4.20;;;3.73;;
15295;SDS011;7749;49.964;7.890;2024-03-17T01:51:12;4.93;;;3.93;;
15295;SDS011;7749;49.964;7.890;2024-03-17T01:53:40;3.77;;;3.43;;
15295;SDS011;7749;49.964;7.890;2024-03-17T01:56:10;5.63;;;3.63;;
15295;SDS011;7749;49.964;7.890;2024-03-17T01:58:37;4.93;;;3.80;;
15295;SDS011;7749;49.964;7.890;2024-03-17T02:01:03;5.43;;;3.93;;
15295;SDS011;7749;49.964;7.890;2024-03-17T02:03:30;4.87;;;4.00;;
15295;SDS011;7749;49.964;7.890;2024-03-17T02:05:58;4.27;;;3.40;;
15295;SDS011;7749;49.964;7.890;2024-03-17T02:08:25;4.47;;;3.70;;
15295;SDS011;7749;49.964;7.890;2024-03-17T02:10:54;5.37;;;3.67;;
15295;SDS011;7749;49.964;7.890;2024-03-17T02:13:21;4.60;;;3.57;;
15295;SDS011;7749;49.964;7.890;2024-03-17T02:15:48;4.97;;;3.60;;
15295;SDS011;7749;49.964;7.890;2024-03-17T02:18:14;5.13;;;3.73;;
15295;SDS011;7749;49.964;7.890;2024-03-17T02:20:40;6.53;;;3.67;;
15295;SDS011;7749;49.964;7.890;2024-03-17T02:23:25;4.47;;;3.43;;
15295;SDS011;7749;49.964;7.890;2024-03-17T02:25:53;4.33;;;3.67;;
15295;SDS011;7749;49.964;7.890;2024-03-17T02:28:19;4.20;;;3.07;;
15295;SDS011;7749;49.964;7.890;2024-03-17T02:30:46;5.43;;;3.43;;
15295;SDS011;7749;49.964;7.890;2024-03-17T02:33:13;3.53;;;3.23;;
15295;SDS011;7749;49.964;7.890;2024-03-17T02:35:39;4.20;;;3.40;;
15295;SDS011;7749;49.964;7.890;2024-03-17T02:38:05;4.17;;;3.50;;
15295;SDS011;7749;49.964;7.890;2024-03-17T02:40:33;4.13;;;3.30;;
15295;SDS011;7749;49.964;7.890;2024-03-17T02:43:00;4.17;;;3.03;;
15295;SDS011;7749;49.964;7.890;2024-03-17T02:45:26;3.90;;;3.10;;
15295;SDS011;7749;49.964;7.890;2024-03-17T02:47:53;3.83;;;3.10;;
15295;SDS011;7749;49.964;7.890;2024-03-17T02:50:19;4.53;;;3.57;;
15295;SDS011;7749;49.964;7.890;2024-03-17T02:52:45;4.00;;;3.43;;
15295;SDS011;7749;49.964;7.890;2024-03-17T02:55:12;6.70;;;3.43;;
15295;SDS011;7749;49.964;7.890;2024-03-17T02:57:38;3.83;;;3.10;;
15295;SDS011;7749;49.964;7.890;2024-03-17T03:00:04;5.47;;;3.77;;
15295;SDS011;7749;49.964;7.890;2024-03-17T03:02:34;4.77;;;3.23;;
15295;SDS011;7749;49.964;7.890;2024-03-17T03:05:00;3.40;;;3.10;;
15295;SDS011;7749;49.964;7.890;2024-03-17T03:07:27;5.27;;;3.20;;
15295;SDS011;7749;49.964;7.890;2024-03-17T03:09:53;4.97;;;3.83;;
15295;SDS011;7749;49.964;7.890;2024-03-17T03:12:20;6.27;;;3.70;;
15295;SDS011;7749;49.964;7.890;2024-03-17T03:14:46;5.43;;;3.83;;
15295;SDS011;7749;49.964;7.890;2024-03-17T03:17:13;3.67;;;3.30;;
15295;SDS011;7749;49.964;7.890;2024-03-17T03:19:39;5.47;;;4.17;;
15295;SDS011;7749;49.964;7.890;2024-03-17T03:22:05;6.53;;;4.27;;
15295;SDS011;7749;49.964;7.890;2024-03-17T03:24:32;5.47;;;4.13;;
15295;SDS011;7749;49.964;7.890;2024-03-17T03:26:58;3.53;;;3.20;;
15295;SDS011;7749;49.964;7.890;2024-03-17T03:29:24;5.43;;;3.53;;
15295;SDS011;7749;49.964;7.890;2024-03-17T03:31:51;4.13;;;3.47;;
15295;SDS011;7749;49.964;7.890;2024-03-17T03:34:17;6.13;;;4.20;;
15295;SDS011;7749;49.964;7.890;2024-03-17T03:36:43;4.57;;;3.90;;
15295;SDS011;7749;49.964;7.890;2024-03-17T03:39:10;5.33;;;4.20;;
15295;SDS011;7749;49.964;7.890;2024-03-17T03:41:38;4.17;;;3.73;;
15295;SDS011;7749;49.964;7.890;2024-03-17T03:44:04;4.80;;;3.90;;
15295;SDS011;7749;49.964;7.890;2024-03-17T03:46:31;5.27;;;3.97;;
15295;SDS011;7749;49.964;7.890;2024-03-17T03:48:57;4.80;;;3.87;;
15295;SDS011;7749;49.964;7.890;2024-03-17T03:51:23;5.43;;;4.00;;
15295;SDS011;7749;49.964;7.890;2024-03-17T03:53:50;5.67;;;5.07;;
15295;SDS011;7749;49.964;7.890;2024-03-17T03:56:18;7.47;;;5.53;;
15295;SDS011;7749;49.964;7.890;2024-03-17T03:58:46;4.93;;;3.60;;
15295;SDS011;7749;49.964;7.890;2024-03-17T04:01:12;7.57;;;3.87;;
15295;SDS011;7749;49.964;7.890;2024-03-17T04:03:47;6.23;;;3.87;;
15295;SDS011;7749;49.964;7.890;2024-03-17T04:06:14;4.17;;;3.70;;
15295;SDS011;7749;49.964;7.890;2024-03-17T04:08:41;5.57;;;4.40;;
15295;SDS011;7749;49.964;7.890;2024-03-17T04:11:08;6.13;;;3.90;;
15295;SDS011;7749;49.964;7.890;2024-03-17T04:13:37;4.13;;;3.70;;
15295;SDS011;7749;49.964;7.890;2024-03-17T04:16:03;5.90;;;4.00;;
15295;SDS011;7749;49.964;7.890;2024-03-17T04:18:31;4.10;;;3.70;;
15295;SDS011;7749;49.964;7.890;2024-03-17T04:21:04;7.23;;;4.20;;
15295;SDS011;7749;49.964;7.890;2024-03-17T04:23:32;4.47;;;3.60;;
15295;SDS011;7749;49.964;7.890;2024-03-17T04:26:00;3.97;;;3.63;;
15295;SDS011;7749;49.964;7.890;2024-03-17T04:28:27;4.80;;;4.30;;
15295;SDS011;7749;49.964;7.890;2024-03-17T04:31:01;6.07;;;3.70;;
15295;SDS011;7749;49.964;7.890;2024-03-17T04:33:30;6.30;;;4.03;;
15295;SDS011;7749;49.964;7.890;2024-03-17T04:35:57;6.87;;;4.43;;
15295;SDS011;7749;49.964;7.890;2024-03-17T04:38:23;8.63;;;5.00;;
15295;SDS011;7749;49.964;7.890;2024-03-17T04:40:50;6.20;;;5.07;;
15295;SDS011;7749;49.964;7.890;2024-03-17T04:43:17;6.23;;;4.90;;
15295;SDS011;7749;49.964;7.890;2024-03-17T04:45:44;5.90;;;4.07;;
15295;SDS011;7749;49.964;7.890;2024-03-17T04:48:10;4.80;;;3.87;;
15295;SDS011;7749;49.964;7.890;2024-03-17T04:50:37;4.50;;;3.90;;
15295;SDS011;7749;49.964;7.890;2024-03-17T04:53:03;5.40;;;4.17;;
15295;SDS011;7749;49.964;7.890;2024-03-17T04:55:30;4.50;;;3.87;;
15295;SDS011;7749;49.964;7.890;2024-03-17T04:57:56;9.50;;;5.20;;
15295;SDS011;7749;49.964;7.890;2024-03-17T05:00:22;5.97;;;4.30;;
15295;SDS011;7749;49.964;7.890;2024-03-17T05:02:49;5.63;;;3.67;;
15295;SDS011;7749;49.964;7.890;2024-03-17T05:05:16;5.20;;;3.80;;
15295;SDS011;7749;49.964;7.890;2024-03-17T05:07:42;5.40;;;3.67;;
15295;SDS011;7749;49.964;7.890;2024-03-17T05:10:09;4.43;;;3.93;;
15295;SDS011;7749;49.964;7.890;2024-03-17T05:12:36;4.60;;;3.80;;
15295;SDS011;7749;49.964;7.890;2024-03-17T05:15:02;5.33;;;4.13;;
15295;SDS011;7749;49.964;7.890;2024-03-17T05:17:31;5.47;;;4.90;;
15295;SDS011;7749;49.964;7.890;2024-03-17T05:19:57;7.57;;;5.67;;
15295;SDS011;7749;49.964;7.890;2024-03-17T05:22:23;5.87;;;4.37;;
15295;SDS011;7749;49.964;7.890;2024-03-17T05:24:50;6.77;;;4.37;;
15295;SDS011;7749;49.964;7.890;2024-03-17T05:27:16;6.90;;;5.40;;
15295;SDS011;7749;49.964;7.890;2024-03-17T05:29:43;5.13;;;4.60;;
15295;SDS011;7749;49.964;7.890;2024-03-17T05:32:09;5.10;;;4.53;;
15295;SDS011;7749;49.964;7.890;2024-03-17T05:34:35;5.17;;;4.20;;
15295;SDS011;7749;49.964;7.890;2024-03-17T05:37:03;4.40;;;3.93;;
15295;SDS011;7749;49.964;7.890;2024-03-17T05:39:30;5.17;;;4.37;;
15295;SDS011;7749;49.964;7.890;2024-03-17T05:41:56;4.90;;;4.00;;
15295;SDS011;7749;49.964;7.890;2024-03-17T05:44:22;5.10;;;3.80;;
15295;SDS011;7749;49.964;7.890;2024-03-17T05:46:49;4.10;;;3.50;;
15295;SDS011;7749;49.964;7.890;2024-03-17T05:49:18;4.87;;;3.80;;
15295;SDS011;7749;49.964;7.890;2024-03-17T05:51:46;4.73;;;4.00;;
15295;SDS011;7749;49.964;7.890;2024-03-17T05:54:13;6.90;;;3.70;;
15295;SDS011;7749;49.964;7.890;2024-03-17T05:56:39;4.50;;;4.10;;
15295;SDS011;7749;49.964;7.890;2024-03-17T05:59:05;6.27;;;4.20;;
15295;SDS011;7749;49.964;7.890;2024-03-17T06:01:32;6.50;;;4.37;;
15295;SDS011;7749;49.964;7.890;2024-03-17T06:03:58;8.07;;;4.23;;
15295;SDS011;7749;49.964;7.890;2024-03-17T06:06:25;4.87;;;4.40;;
15295;SDS011;7749;49.964;7.890;2024-03-17T06:08:52;6.00;;;4.27;;
15295;SDS011;7749;49.964;7.890;2024-03-17T06:11:18;9.73;;;7.47;;
15295;SDS011;7749;49.964;7.890;2024-03-17T06:13:44;4.20;;;3.80;;
15295;SDS011;7749;49.964;7.890;2024-03-17T06:16:11;4.67;;;4.20;;
15295;SDS011;7749;49.964;7.890;2024-03-17T06:18:37;5.00;;;4.07;;
15295;SDS011;7749;49.964;7.890;2024-03-17T06:21:04;5.80;;;4.17;;
15295;SDS011;7749;49.964;7.890;2024-03-17T06:23:31;5.67;;;4.43;;
15295;SDS011;7749;49.964;7.890;2024-03-17T06:25:57;5.63;;;4.17;;
15295;SDS011;7749;49.964;7.890;2024-03-17T06:28:25;4.83;;;4.03;;
15295;SDS011;7749;49.964;7.890;2024-03-17T06:30:56;5.07;;;4.27;;
15295;SDS011;7749;49.964;7.890;2024-03-17T06:33:29;5.70;;;4.30;;
15295;SDS011;7749;49.964;7.890;2024-03-17T06:35:57;4.37;;;3.97;;
15295;SDS011;7749;49.964;7.890;2024-03-17T06:38:27;5.13;;;4.10;;
15295;SDS011;7749;49.964;7.890;2024-03-17T06:40:53;5.03;;;3.83;;
15295;SDS011;7749;49.964;7.890;2024-03-17T06:43:19;6.37;;;3.97;;
15295;SDS011;7749;49.964;7.890;2024-03-17T06:48:22;4.60;;;3.80;;
15295;SDS011;7749;49.964;7.890;2024-03-17T06:50:49;4.77;;;3.80;;
15295;SDS011;7749;49.964;7.890;2024-03-17T06:53:18;4.00;;;3.60;;
15295;SDS011;7749;49.964;7.890;2024-03-17T06:55:52;5.53;;;3.87;;
15295;SDS011;7749;49.964;7.890;2024-03-17T06:58:25;5.47;;;3.97;;
15295;SDS011;7749;49.964;7.890;2024-03-17T07:00:57;4.70;;;3.67;;
15295;SDS011;7749;49.964;7.890;2024-03-17T07:03:28;6.10;;;4.17;;
15295;SDS011;7749;49.964;7.890;2024-03-17T07:05:56;3.83;;;3.53;;
15295;SDS011;7749;49.964;7.890;2024-03-17T07:08:25;4.33;;;3.63;;
15295;SDS011;7749;49.964;7.890;2024-03-17T07:11:10;4.37;;;3.90;;
15295;SDS011;7749;49.964;7.890;2024-03-17T07:13:36;5.53;;;4.00;;
15295;SDS011;7749;49.964;7.890;2024-03-17T07:16:04;4.20;;;3.70;;
15295;SDS011;7749;49.964;7.890;2024-03-17T07:18:31;7.80;;;5.00;;
15295;SDS011;7749;49.964;7.890;2024-03-17T07:20:59;5.37;;;4.07;;
15295;SDS011;7749;49.964;7.890;2024-03-17T07:23:26;9.00;;;4.63;;
15295;SDS011;7749;49.964;7.890;2024-03-17T07:25:53;4.77;;;4.23;;
15295;SDS011;7749;49.964;7.890;2024-03-17T07:28:21;4.87;;;4.20;;
15295;SDS011;7749;49.964;7.890;2024-03-17T07:30:55;4.63;;;4.03;;
15295;SDS011;7749;49.964;7.890;2024-03-17T07:33:23;4.80;;;4.27;;
15295;SDS011;7749;49.964;7.890;2024-03-17T07:35:50;4.77;;;4.13;;
15295;SDS011;7749;49.964;7.890;2024-03-17T07:38:18;6.57;;;5.43;;
15295;SDS011;7749;49.964;7.890;2024-03-17T07:40:45;5.63;;;4.67;;
15295;SDS011;7749;49.964;7.890;2024-03-17T07:43:23;6.00;;;5.33;;
15295;SDS011;7749;49.964;7.890;2024-03-17T07:48:32;7.07;;;6.37;;
15295;SDS011;7749;49.964;7.890;2024-03-17T07:51:02;8.53;;;6.23;;
15295;SDS011;7749;49.964;7.890;2024-03-17T07:53:34;7.57;;;6.17;;
15295;SDS011;7749;49.964;7.890;2024-03-17T07:56:03;7.10;;;6.37;;
15295;SDS011;7749;49.964;7.890;2024-03-17T07:58:31;9.57;;;7.33;;
15295;SDS011;7749;49.964;7.890;2024-03-17T08:00:59;9.23;;;6.90;;
15295;SDS011;7749;49.964;7.890;2024-03-17T08:03:27;9.70;;;7.37;;
15295;SDS011;7749;49.964;7.890;2024-03-17T08:05:54;7.43;;;6.73;;
15295;SDS011;7749;49.964;7.890;2024-03-17T08:08:21;8.63;;;7.00;;
15295;SDS011;7749;49.964;7.890;2024-03-17T08:10:47;7.93;;;7.13;;
15295;SDS011;7749;49.964;7.890;2024-03-17T08:13:17;7.77;;;7.07;;
15295;SDS011;7749;49.964;7.890;2024-03-17T08:15:44;8.43;;;7.20;;
15295;SDS011;7749;49.964;7.890;2024-03-17T08:18:11;9.37;;;7.87;;
15295;SDS011;7749;49.964;7.890;2024-03-17T08:20:39;10.43;;;8.10;;
15295;SDS011;7749;49.964;7.890;2024-03-17T08:23:06;9.97;;;7.10;;
15295;SDS011;7749;49.964;7.890;2024-03-17T08:25:33;8.73;;;7.67;;
15295;SDS011;7749;49.964;7.890;2024-03-17T08:28:00;7.77;;;6.93;;
15295;SDS011;7749;49.964;7.890;2024-03-17T08:30:27;9.87;;;7.70;;
15295;SDS011;7749;49.964;7.890;2024-03-17T08:32:54;8.80;;;7.50;;
15295;SDS011;7749;49.964;7.890;2024-03-17T08:35:20;8.97;;;8.03;;
15295;SDS011;7749;49.964;7.890;2024-03-17T08:37:46;8.93;;;8.03;;
15295;SDS011;7749;49.964;7.890;2024-03-17T08:40:13;10.30;;;7.73;;
15295;SDS011;7749;49.964;7.890;2024-03-17T08:42:40;11.47;;;8.57;;
15295;SDS011;7749;49.964;7.890;2024-03-17T08:45:06;11.07;;;8.63;;
15295;SDS011;7749;49.964;7.890;2024-03-17T08:47:34;11.47;;;8.53;;
15295;SDS011;7749;49.964;7.890;2024-03-17T08:50:00;11.40;;;8.60;;
15295;SDS011;7749;49.964;7.890;2024-03-17T08:52:30;8.53;;;7.63;;
15295;SDS011;7749;49.964;7.890;2024-03-17T08:54:59;11.13;;;8.27;;
15295;SDS011;7749;49.964;7.890;2024-03-17T08:57:25;10.23;;;8.23;;
15295;SDS011;7749;49.964;7.890;2024-03-17T08:59:52;9.70;;;8.70;;
15295;SDS011;7749;49.964;7.890;2024-03-17T09:02:19;10.67;;;8.63;;
15295;SDS011;7749;49.964;7.890;2024-03-17T09:04:48;11.83;;;8.63;;
15295;SDS011;7749;49.964;7.890;2024-03-17T09:07:14;10.97;;;8.90;;
15295;SDS011;7749;49.964;7.890;2024-03-17T09:09:43;9.03;;;8.10;;
15295;SDS011;7749;49.964;7.890;2024-03-17T09:12:12;12.13;;;8.50;;
15295;SDS011;7749;49.964;7.890;2024-03-17T09:14:38;12.43;;;8.63;;
15295;SDS011;7749;49.964;7.890;2024-03-17T09:17:06;10.90;;;7.90;;
15295;SDS011;7749;49.964;7.890;2024-03-17T09:19:33;10.37;;;8.43;;
15295;SDS011;7749;49.964;7.890;2024-03-17T09:21:59;10.57;;;7.90;;
15295;SDS011;7749;49.964;7.890;2024-03-17T09:24:26;9.43;;;8.03;;
15295;SDS011;7749;49.964;7.890;2024-03-17T09:26:52;9.43;;;8.20;;
15295;SDS011;7749;49.964;7.890;2024-03-17T09:29:19;8.53;;;7.60;;
15295;SDS011;7749;49.964;7.890;2024-03-17T09:31:45;13.27;;;10.63;;
15295;SDS011;7749;49.964;7.890;2024-03-17T09:34:11;9.83;;;7.60;;
15295;SDS011;7749;49.964;7.890;2024-03-17T09:36:38;10.33;;;7.47;;
15295;SDS011;7749;49.964;7.890;2024-03-17T09:39:04;10.13;;;6.80;;
15295;SDS011;7749;49.964;7.890;2024-03-17T09:41:31;9.27;;;7.23;;
15295;SDS011;7749;49.964;7.890;2024-03-17T09:43:57;9.43;;;7.13;;
15295;SDS011;7749;49.964;7.890;2024-03-17T09:46:24;7.73;;;6.80;;
15295;SDS011;7749;49.964;7.890;2024-03-17T09:48:53;8.30;;;6.40;;
15295;SDS011;7749;49.964;7.890;2024-03-17T09:51:21;6.77;;;5.90;;
15295;SDS011;7749;49.964;7.890;2024-03-17T09:53:49;7.57;;;6.30;;
15295;SDS011;7749;49.964;7.890;2024-03-17T09:56:17;7.43;;;6.67;;
15295;SDS011;7749;49.964;7.890;2024-03-17T09:58:45;8.17;;;6.77;;
15295;SDS011;7749;49.964;7.890;2024-03-17T10:01:11;7.13;;;6.43;;
15295;SDS011;7749;49.964;7.890;2024-03-17T10:06:09;7.80;;;7.00;;
15295;SDS011;7749;49.964;7.890;2024-03-17T10:11:15;7.27;;;6.20;;
15295;SDS011;7749;49.964;7.890;2024-03-17T10:14:05;6.73;;;6.13;;
15295;SDS011;7749;49.964;7.890;2024-03-17T10:16:34;8.73;;;6.30;;
15295;SDS011;7749;49.964;7.890;2024-03-17T10:21:47;7.10;;;6.03;;
15295;SDS011;7749;49.964;7.890;2024-03-17T10:26:48;7.90;;;6.20;;
15295;SDS011;7749;49.964;7.890;2024-03-17T10:29:28;9.00;;;6.23;;
15295;SDS011;7749;49.964;7.890;2024-03-17T10:34:42;8.47;;;5.97;;
15295;SDS011;7749;49.964;7.890;2024-03-17T10:37:19;6.73;;;5.97;;
15295;SDS011;7749;49.964;7.890;2024-03-17T10:39:50;8.07;;;5.70;;
15295;SDS011;7749;49.964;7.890;2024-03-17T10:42:23;5.80;;;5.30;;
15295;SDS011;7749;49.964;7.890;2024-03-17T10:44:54;6.17;;;5.53;;
15295;SDS011;7749;49.964;7.890;2024-03-17T10:47:22;5.23;;;4.73;;
15295;SDS011;7749;49.964;7.890;2024-03-17T10:49:58;4.90;;;4.50;;
15295;SDS011;7749;49.964;7.890;2024-03-17T10:52:29;5.70;;;5.20;;
15295;SDS011;7749;49.964;7.890;2024-03-17T10:54:59;6.70;;;5.90;;
15295;SDS011;7749;49.964;7.890;2024-03-17T10:57:46;6.53;;;5.33;;
15295;SDS011;7749;49.964;7.890;2024-03-17T11:00:16;8.33;;;6.37;;
15295;SDS011;7749;49.964;7.890;2024-03-17T11:02:44;6.13;;;5.23;;
15295;SDS011;7749;49.964;7.890;2024-03-17T11:05:15;7.37;;;5.43;;
15295;SDS011;7749;49.964;7.890;2024-03-17T11:07:43;6.93;;;5.20;;
15295;SDS011;7749;49.964;7.890;2024-03-17T11:10:15;6.40;;;5.07;;
15295;SDS011;7749;49.964;7.890;2024-03-17T11:12:50;5.53;;;4.97;;
15295;SDS011;7749;49.964;7.890;2024-03-17T11:20:40;4.65;;;4.30;;
15295;SDS011;7749;49.964;7.890;2024-03-17T11:23:40;6.57;;;4.80;;
15295;SDS011;7749;49.964;7.890;2024-03-17T11:26:07;7.28;;;4.60;;
15295;SDS011;7749;49.964;7.890;2024-03-17T11:28:44;4.68;;;4.28;;
15295;SDS011;7749;49.964;7.890;2024-03-17T11:36:56;5.50;;;5.00;;
15295;SDS011;7749;49.964;7.890;2024-03-17T11:42:23;5.75;;;5.07;;
15295;SDS011;7749;49.964;7.890;2024-03-17T11:44:57;6.20;;;5.30;;
15295;SDS011;7749;49.964;7.890;2024-03-17T11:47:38;4.90;;;4.50;;
15295;SDS011;7749;49.964;7.890;2024-03-17T11:50:06;6.05;;;4.70;;
15295;SDS011;7749;49.964;7.890;2024-03-17T11:52:37;4.82;;;4.43;;
15295;SDS011;7749;49.964;7.890;2024-03-17T11:55:10;5.13;;;4.53;;
15295;SDS011;7749;49.964;7.890;2024-03-17T11:57:41;11.30;;;5.30;;
15295;SDS011;7749;49.964;7.890;2024-03-17T12:00:21;5.38;;;4.88;;
15295;SDS011;7749;49.964;7.890;2024-03-17T12:02:49;5.07;;;4.43;;
15295;SDS011;7749;49.964;7.890;2024-03-17T12:05:16;5.70;;;5.20;;
15295;SDS011;7749;49.964;7.890;2024-03-17T12:07:42;5.72;;;5.13;;
15295;SDS011;7749;49.964;7.890;2024-03-17T12:10:12;5.50;;;4.85;;
15295;SDS011;7749;49.964;7.890;2024-03-17T12:12:40;7.32;;;5.05;;
15295;SDS011;7749;49.964;7.890;2024-03-17T12:15:19;9.32;;;5.47;;
15295;SDS011;7749;49.964;7.890;2024-03-17T12:17:51;6.03;;;5.35;;
15295;SDS011;7749;49.964;7.890;2024-03-17T12:20:19;6.03;;;5.13;;
15295;SDS011;7749;49.964;7.890;2024-03-17T12:22:47;6.00;;;5.20;;
15295;SDS011;7749;49.964;7.890;2024-03-17T12:25:16;5.38;;;4.88;;
15295;SDS011;7749;49.964;7.890;2024-03-17T12:27:45;6.03;;;5.30;;
15295;SDS011;7749;49.964;7.890;2024-03-17T12:30:12;7.22;;;5.20;;
15295;SDS011;7749;49.964;7.890;2024-03-17T12:32:39;5.72;;;5.13;;
15295;SDS011;7749;49.964;7.890;2024-03-17T12:35:11;6.47;;;5.30;;
15295;SDS011;7749;49.964;7.890;2024-03-17T12:37:42;7.38;;;5.43;;
15295;SDS011;7749;49.964;7.890;2024-03-17T12:40:20;6.72;;;5.85;;
15295;SDS011;7749;49.964;7.890;2024-03-17T12:42:49;7.60;;;5.82;;
15295;SDS011;7749;49.964;7.890;2024-03-17T12:45:20;6.40;;;5.80;;
15295;SDS011;7749;49.964;7.890;2024-03-17T12:47:48;6.07;;;5.07;;
15295;SDS011;7749;49.964;7.890;2024-03-17T12:50:15;6.93;;;5.60;;
15295;SDS011;7749;49.964;7.890;2024-03-17T12:52:53;7.95;;;5.93;;
15295;SDS011;7749;49.964;7.890;2024-03-17T12:55:21;6.53;;;5.72;;
15295;SDS011;7749;49.964;7.890;2024-03-17T12:58:07;6.50;;;5.57;;
15295;SDS011;7749;49.964;7.890;2024-03-17T13:01:03;6.20;;;5.63;;
15295;SDS011;7749;49.964;7.890;2024-03-17T13:03:31;6.80;;;5.50;;
15295;SDS011;7749;49.964;7.890;2024-03-17T13:06:02;9.00;;;5.80;;
15295;SDS011;7749;49.964;7.890;2024-03-17T13:08:34;7.20;;;5.67;;
15295;SDS011;7749;49.964;7.890;2024-03-17T13:11:01;7.37;;;5.83;;
15295;SDS011;7749;49.964;7.890;2024-03-17T13:13:31;6.23;;;5.63;;
15295;SDS011;7749;49.964;7.890;2024-03-17T13:15:57;7.70;;;6.33;;
15295;SDS011;7749;49.964;7.890;2024-03-17T13:18:24;7.17;;;5.90;;
15295;SDS011;7749;49.964;7.890;2024-03-17T13:20:51;6.23;;;5.60;;
15295;SDS011;7749;49.964;7.890;2024-03-17T13:23:19;7.03;;;6.33;;
15295;SDS011;7749;49.964;7.890;2024-03-17T13:25:47;6.77;;;6.17;;
15295;SDS011;7749;49.964;7.890;2024-03-17T13:28:14;7.53;;;6.20;;
15295;SDS011;7749;49.964;7.890;2024-03-17T13:30:40;7.20;;;6.50;;
15295;SDS011;7749;49.964;7.890;2024-03-17T13:33:07;8.60;;;6.80;;
15295;SDS011;7749;49.964;7.890;2024-03-17T13:35:35;7.90;;;6.50;;
15295;SDS011;7749;49.964;7.890;2024-03-17T13:38:08;7.53;;;6.67;;
15295;SDS011;7749;49.964;7.890;2024-03-17T13:40:39;8.37;;;6.83;;
15295;SDS011;7749;49.964;7.890;2024-03-17T13:43:06;7.10;;;6.40;;
15295;SDS011;7749;49.964;7.890;2024-03-17T13:45:39;8.60;;;6.37;;
15295;SDS011;7749;49.964;7.890;2024-03-17T13:48:08;7.03;;;6.33;;
15295;SDS011;7749;49.964;7.890;2024-03-17T13:50:38;7.87;;;7.07;;
15295;SDS011;7749;49.964;7.890;2024-03-17T13:53:06;7.03;;;6.40;;
15295;SDS011;7749;49.964;7.890;2024-03-17T13:55:33;7.28;;;6.15;;
15295;SDS011;7749;49.964;7.890;2024-03-17T13:58:01;7.13;;;6.43;;
15295;SDS011;7749;49.964;7.890;2024-03-17T14:00:28;7.43;;;6.67;;
15295;SDS011;7749;49.964;7.890;2024-03-17T14:02:55;7.83;;;6.80;;
15295;SDS011;7749;49.964;7.890;2024-03-17T14:05:22;7.03;;;6.33;;
15295;SDS011;7749;49.964;7.890;2024-03-17T14:07:50;7.53;;;6.83;;
15295;SDS011;7749;49.964;7.890;2024-03-17T14:10:18;7.53;;;6.85;;
15295;SDS011;7749;49.964;7.890;2024-03-17T14:12:45;8.03;;;7.23;;
15295;SDS011;7749;49.964;7.890;2024-03-17T14:15:13;8.33;;;7.53;;
15295;SDS011;7749;49.964;7.890;2024-03-17T14:17:41;8.30;;;6.87;;
15295;SDS011;7749;49.964;7.890;2024-03-17T14:20:09;7.67;;;6.87;;
15295;SDS011;7749;49.964;7.890;2024-03-17T14:22:42;8.73;;;7.87;;
15295;SDS011;7749;49.964;7.890;2024-03-17T14:25:14;8.00;;;7.20;;
15295;SDS011;7749;49.964;7.890;2024-03-17T14:27:42;8.47;;;7.33;;
15295;SDS011;7749;49.964;7.890;2024-03-17T14:30:10;8.48;;;7.47;;
15295;SDS011;7749;49.964;7.890;2024-03-17T14:32:39;7.95;;;7.18;;
15295;SDS011;7749;49.964;7.890;2024-03-17T14:35:05;7.32;;;6.63;;
15295;SDS011;7749;49.964;7.890;2024-03-17T14:37:37;10.00;;;8.05;;
15295;SDS011;7749;49.964;7.890;2024-03-17T14:40:03;7.68;;;6.93;;
15295;SDS011;7749;49.964;7.890;2024-03-17T14:42:37;7.15;;;6.43;;
15295;SDS011;7749;49.964;7.890;2024-03-17T14:45:03;7.93;;;7.13;;
15295;SDS011;7749;49.964;7.890;2024-03-17T14:47:30;7.93;;;6.68;;
15295;SDS011;7749;49.964;7.890;2024-03-17T14:49:56;7.57;;;6.88;;
15295;SDS011;7749;49.964;7.890;2024-03-17T14:52:23;7.95;;;7.03;;
15295;SDS011;7749;49.964;7.890;2024-03-17T14:54:50;10.38;;;7.78;;
15295;SDS011;7749;49.964;7.890;2024-03-17T14:57:19;7.97;;;7.18;;
15295;SDS011;7749;49.964;7.890;2024-03-17T14:59:47;8.00;;;7.30;;
15295;SDS011;7749;49.964;7.890;2024-03-17T15:02:13;9.02;;;8.13;;
15295;SDS011;7749;49.964;7.890;2024-03-17T15:04:40;8.45;;;7.75;;
15295;SDS011;7749;49.964;7.890;2024-03-17T15:07:06;9.00;;;7.93;;
15295;SDS011;7749;49.964;7.890;2024-03-17T15:09:34;10.40;;;8.35;;
15295;SDS011;7749;49.964;7.890;2024-03-17T15:12:01;9.43;;;8.52;;
15295;SDS011;7749;49.964;7.890;2024-03-17T15:14:29;8.90;;;7.25;;
15295;SDS011;7749;49.964;7.890;2024-03-17T15:16:57;9.15;;;8.35;;
15295;SDS011;7749;49.964;7.890;2024-03-17T15:19:23;9.65;;;8.70;;
15295;SDS011;7749;49.964;7.890;2024-03-17T15:21:50;9.32;;;8.38;;
15295;SDS011;7749;49.964;7.890;2024-03-17T15:24:17;9.27;;;8.38;;
15295;SDS011;7749;49.964;7.890;2024-03-17T15:26:43;9.48;;;8.57;;
15295;SDS011;7749;49.964;7.890;2024-03-17T15:29:09;10.15;;;8.85;;
15295;SDS011;7749;49.964;7.890;2024-03-17T15:31:38;10.07;;;9.02;;
15295;SDS011;7749;49.964;7.890;2024-03-17T15:34:07;10.50;;;9.30;;
15295;SDS011;7749;49.964;7.890;2024-03-17T15:36:33;9.52;;;8.52;;
15295;SDS011;7749;49.964;7.890;2024-03-17T15:38:59;9.80;;;8.80;;